createdAt,value
2019-05-12T00:01:09.167Z,64.86
2019-05-12T00:03:39.499Z,64.96
2019-05-12T00:06:09.806Z,64.92
2019-05-12T00:08:39.703Z,65.03
2019-05-12T00:11:09.684Z,65.06
2019-05-12T00:13:39.751Z,64.92
2019-05-12T00:16:09.720Z,64.92
2019-05-12T00:18:39.501Z,64.96
2019-05-12T00:21:09.639Z,64.88
2019-05-12T00:23:58.262Z,64.87
2019-05-12T00:26:28.459Z,64.84
2019-05-12T00:28:58.905Z,64.97
2019-05-12T00:31:29.252Z,65.20
2019-05-12T00:34:00.193Z,65.25
2019-05-12T00:36:31.436Z,65.17
2019-05-12T00:39:02.377Z,65.25
2019-05-12T00:41:32.465Z,65.38
2019-05-12T00:44:02.287Z,65.26
2019-05-12T00:46:33.333Z,65.30
2019-05-12T00:49:03.226Z,65.41
2019-05-12T00:51:33.369Z,65.38
2019-05-12T00:54:03.548Z,65.53
2019-05-12T00:56:33.434Z,65.65
2019-05-12T00:59:03.689Z,65.56
2019-05-12T01:01:33.643Z,65.48
2019-05-12T01:04:03.597Z,65.55
2019-05-12T01:06:33.701Z,65.72
2019-05-12T01:09:08.543Z,65.86
2019-05-12T01:11:40.633Z,65.68
2019-05-12T01:14:09.587Z,65.78
2019-05-12T01:16:39.485Z,65.62
2019-05-12T01:19:09.323Z,65.59
2019-05-12T01:21:42.597Z,65.75
2019-05-12T01:24:12.563Z,65.69
2019-05-12T01:26:42.932Z,65.62
2019-05-12T01:29:12.952Z,65.78
2019-05-12T01:31:50.441Z,65.90
2019-05-12T01:34:20.559Z,66.14
2019-05-12T01:36:50.425Z,66.03
2019-05-12T01:39:20.262Z,65.89
2019-05-12T01:41:50.408Z,65.90
2019-05-12T01:44:20.583Z,65.85
2019-05-12T01:46:50.565Z,65.72
2019-05-12T01:49:20.647Z,65.92
2019-05-12T01:51:50.536Z,65.87
2019-05-12T01:54:20.396Z,65.93
2019-05-12T01:56:50.632Z,65.99
2019-05-12T01:59:21.070Z,66.03
2019-05-12T02:01:51.033Z,65.92
2019-05-12T02:04:21.041Z,66.00
2019-05-12T02:06:51.561Z,65.89
2019-05-12T02:09:23.043Z,66.11
2019-05-12T02:11:53.043Z,66.12
2019-05-12T02:14:23.049Z,66.11
2019-05-12T02:16:53.443Z,66.19
2019-05-12T02:19:23.250Z,66.37
2019-05-12T02:21:53.184Z,66.55
2019-05-12T02:24:27.118Z,66.81
2019-05-12T02:26:54.629Z,66.88
2019-05-12T02:29:24.550Z,66.95
2019-05-12T02:31:54.430Z,67.30
2019-05-12T02:34:25.365Z,67.17
2019-05-12T02:36:55.763Z,67.21
2019-05-12T02:39:26.181Z,67.29
2019-05-12T02:41:56.271Z,67.39
2019-05-12T02:44:26.078Z,67.42
2019-05-12T02:46:56.483Z,67.53
2019-05-12T02:49:26.528Z,67.61
2019-05-12T02:51:56.843Z,67.62
2019-05-12T02:54:47.016Z,67.59
2019-05-12T02:56:59.244Z,67.62
2019-05-12T02:59:34.668Z,67.66
2019-05-12T03:02:05.576Z,67.76
2019-05-12T03:04:36.657Z,67.86
2019-05-12T03:07:06.856Z,67.67
2019-05-12T03:09:37.034Z,67.74
2019-05-12T03:12:07.436Z,67.78
2019-05-12T03:14:40.901Z,67.92
2019-05-12T03:17:09.165Z,68.13
2019-05-12T03:19:39.772Z,68.23
2019-05-12T03:22:09.598Z,68.31
2019-05-12T03:24:39.426Z,68.15
2019-05-12T03:27:09.227Z,68.11
2019-05-12T03:29:39.225Z,68.05
2019-05-12T03:32:09.842Z,68.14
2019-05-12T03:34:39.650Z,68.17
2019-05-12T03:37:10.524Z,68.25
2019-05-12T03:39:40.716Z,68.37
2019-05-12T03:42:10.617Z,68.45
2019-05-12T03:44:40.670Z,68.64
2019-05-12T03:47:14.208Z,68.64
2019-05-12T03:49:45.451Z,68.72
2019-05-12T03:52:15.451Z,68.91
2019-05-12T03:54:45.435Z,68.86
2019-05-12T03:57:15.737Z,68.97
2019-05-12T03:59:46.332Z,68.46
2019-05-12T04:02:16.236Z,68.46
2019-05-12T04:04:46.649Z,68.35
2019-05-12T04:07:17.242Z,68.36
2019-05-12T04:09:47.239Z,68.36
2019-05-12T04:12:17.850Z,68.51
2019-05-12T04:14:47.755Z,68.67
2019-05-12T04:17:17.759Z,68.67
2019-05-12T04:19:48.550Z,68.85
2019-05-12T04:22:18.555Z,68.52
2019-05-12T04:24:48.538Z,68.28
2019-05-12T04:27:18.443Z,68.17
2019-05-12T04:29:48.618Z,68.07
2019-05-12T04:32:19.204Z,68.07
2019-05-12T04:34:49.195Z,67.99
2019-05-12T04:37:19.544Z,67.80
2019-05-12T04:39:49.463Z,67.62
2019-05-12T04:42:19.550Z,67.62
2019-05-12T04:44:49.361Z,67.65
2019-05-12T04:47:19.358Z,67.43
2019-05-12T04:49:49.811Z,67.54
2019-05-12T04:52:19.705Z,67.67
2019-05-12T04:54:49.633Z,67.37
2019-05-12T04:57:21.133Z,67.17
2019-05-12T04:59:54.103Z,67.14
2019-05-12T05:02:24.974Z,67.27
2019-05-12T05:04:54.776Z,66.87
2019-05-12T05:07:24.737Z,66.75
2019-05-12T05:09:54.992Z,64.48
2019-05-12T05:12:25.427Z,59.07
2019-05-12T05:14:55.382Z,55.04
2019-05-12T05:17:25.567Z,52.32
2019-05-12T05:19:55.557Z,50.55
2019-05-12T05:22:25.511Z,49.72
2019-05-12T05:24:55.701Z,50.27
2019-05-12T05:27:26.063Z,54.20
2019-05-12T05:29:56.060Z,58.15
2019-05-12T05:32:26.862Z,60.71
2019-05-12T05:34:57.924Z,61.02
2019-05-12T05:37:30.725Z,56.04
2019-05-12T05:40:00.476Z,50.97
2019-05-12T05:42:32.911Z,48.06
2019-05-12T05:45:04.642Z,45.65
2019-05-12T05:47:33.769Z,44.77
2019-05-12T05:50:04.881Z,44.46
2019-05-12T05:52:38.747Z,43.92
2019-05-12T05:55:14.650Z,43.64
2019-05-12T05:57:38.559Z,43.93
2019-05-12T06:00:17.320Z,44.27
2019-05-12T06:02:43.913Z,45.88
2019-05-12T06:05:14.540Z,43.96
2019-05-12T06:07:44.476Z,43.89
2019-05-12T06:10:15.131Z,43.20
2019-05-12T06:12:50.688Z,42.81
2019-05-12T06:15:17.298Z,43.23
2019-05-12T06:17:47.235Z,43.65
2019-05-12T06:20:17.273Z,43.21
2019-05-12T06:22:48.589Z,43.32
2019-05-12T06:25:18.974Z,43.73
2019-05-12T06:27:51.020Z,45.55
2019-05-12T06:30:20.647Z,47.90
2019-05-12T06:32:52.014Z,50.05
2019-05-12T06:35:24.011Z,51.20
2019-05-12T06:37:59.969Z,52.39
2019-05-12T06:40:25.562Z,53.85
2019-05-12T06:42:57.124Z,55.13
2019-05-12T06:45:33.180Z,55.99
2019-05-12T06:48:00.632Z,56.20
2019-05-12T06:50:36.854Z,56.53
2019-05-12T06:53:04.728Z,56.45
2019-05-12T06:55:38.827Z,56.79
2019-05-12T06:58:05.628Z,57.19
2019-05-12T07:00:35.855Z,57.13
2019-05-12T07:03:05.953Z,56.97
2019-05-12T07:05:38.918Z,56.98
2019-05-12T07:08:08.175Z,56.80
2019-05-12T07:10:43.569Z,56.87
2019-05-12T07:13:16.604Z,56.95
2019-05-12T07:15:43.751Z,56.92
2019-05-12T07:18:17.655Z,57.04
2019-05-12T07:20:46.693Z,57.12
2019-05-12T07:23:19.554Z,57.18
2019-05-12T07:25:48.033Z,56.86
2019-05-12T07:28:17.911Z,56.88
2019-05-12T07:30:48.561Z,56.56
2019-05-12T07:33:18.803Z,56.11
2019-05-12T07:35:53.244Z,56.02
2019-05-12T07:38:25.725Z,56.51
2019-05-12T07:40:54.813Z,56.66
2019-05-12T07:43:27.440Z,56.55
2019-05-12T07:46:02.288Z,56.63
2019-05-12T07:48:30.537Z,56.79
2019-05-12T07:51:00.911Z,56.55
2019-05-12T07:53:33.736Z,56.40
2019-05-12T07:56:04.125Z,56.46
2019-05-12T07:58:34.291Z,55.54
2019-05-12T08:01:07.772Z,55.44
2019-05-12T08:03:36.359Z,55.55
2019-05-12T08:06:06.375Z,55.83
2019-05-12T08:08:44.197Z,56.07
2019-05-12T08:11:08.778Z,56.26
2019-05-12T08:13:40.898Z,56.28
2019-05-12T08:16:10.809Z,56.15
2019-05-12T08:18:41.237Z,56.41
2019-05-12T08:21:13.805Z,56.09
2019-05-12T08:23:44.489Z,55.88
2019-05-12T08:26:18.592Z,56.10
2019-05-12T08:28:46.363Z,56.09
2019-05-12T08:31:17.508Z,55.38
2019-05-12T08:33:47.655Z,54.73
2019-05-12T08:36:17.926Z,55.20
2019-05-12T08:38:47.801Z,55.18
2019-05-12T08:41:18.083Z,54.99
2019-05-12T08:43:54.455Z,54.94
2019-05-12T08:46:19.785Z,54.83
2019-05-12T08:48:51.689Z,54.92
2019-05-12T08:51:21.306Z,55.14
2019-05-12T08:53:56.287Z,54.53
2019-05-12T08:56:25.982Z,54.08
2019-05-12T08:58:54.771Z,54.46
2019-05-12T09:01:28.712Z,54.74
2019-05-12T09:04:00.294Z,55.30
2019-05-12T09:06:28.899Z,54.96
2019-05-12T09:08:58.894Z,54.65
2019-05-12T09:11:28.841Z,53.90
2019-05-12T09:14:00.970Z,53.52
2019-05-12T09:16:30.425Z,53.40
2019-05-12T09:19:01.435Z,53.60
2019-05-12T09:21:34.300Z,53.11
2019-05-12T09:24:04.259Z,53.05
2019-05-12T09:26:35.544Z,53.11
2019-05-12T09:29:07.415Z,52.91
2019-05-12T09:31:37.332Z,53.09
2019-05-12T09:34:11.947Z,52.78
2019-05-12T09:36:44.093Z,52.88
2019-05-12T09:39:14.309Z,52.88
2019-05-12T09:41:50.663Z,53.19
2019-05-12T09:44:20.339Z,53.09
2019-05-12T09:46:47.536Z,52.49
2019-05-12T09:49:25.505Z,52.30
2019-05-12T09:51:49.055Z,51.69
2019-05-12T09:54:26.164Z,51.24
2019-05-12T09:56:55.347Z,50.82
2019-05-12T09:59:25.765Z,51.35
2019-05-12T10:01:55.389Z,51.97
2019-05-12T10:04:25.571Z,52.19
2019-05-12T10:06:55.520Z,52.08
2019-05-12T10:09:25.632Z,52.03
2019-05-12T10:12:00.463Z,51.37
2019-05-12T10:14:27.344Z,51.35
2019-05-12T10:16:57.517Z,52.15
2019-05-12T10:19:27.488Z,52.60
2019-05-12T10:21:59.465Z,52.48
2019-05-12T10:24:34.461Z,50.60
2019-05-12T10:27:00.752Z,50.20
2019-05-12T10:29:32.379Z,49.70
2019-05-12T10:32:03.981Z,49.89
2019-05-12T10:34:36.022Z,51.23
2019-05-12T10:37:05.887Z,50.55
2019-05-12T10:39:35.777Z,50.56
2019-05-12T10:42:06.677Z,50.39
2019-05-12T10:44:40.729Z,50.36
2019-05-12T10:47:08.594Z,49.73
2019-05-12T10:49:39.008Z,50.81
2019-05-12T10:52:08.819Z,50.63
2019-05-12T10:54:40.557Z,49.73
2019-05-12T10:57:10.556Z,50.43
2019-05-12T10:59:45.292Z,50.62
2019-05-12T11:02:13.942Z,50.38
2019-05-12T11:04:44.209Z,49.26
2019-05-12T11:07:14.226Z,50.17
2019-05-12T11:09:44.143Z,50.89
2019-05-12T11:12:19.256Z,51.65
2019-05-12T11:14:45.771Z,51.76
2019-05-12T11:17:16.971Z,51.68
2019-05-12T11:19:51.304Z,50.99
2019-05-12T11:22:19.619Z,50.25
2019-05-12T11:24:52.841Z,49.39
2019-05-12T11:27:23.961Z,49.12
2019-05-12T11:29:53.758Z,49.22
2019-05-12T11:32:23.645Z,50.14
2019-05-12T11:34:53.762Z,49.95
2019-05-12T11:37:23.642Z,49.03
2019-05-12T11:40:09.257Z,48.79
2019-05-12T11:42:33.651Z,49.01
2019-05-12T11:45:03.388Z,47.67
2019-05-12T11:47:37.124Z,47.22
2019-05-12T11:50:09.729Z,47.97
2019-05-12T11:52:37.434Z,48.43
2019-05-12T11:55:09.435Z,48.83
2019-05-12T11:57:39.349Z,48.58
2019-05-12T12:00:13.854Z,48.21
2019-05-12T12:02:43.810Z,48.41
2019-05-12T12:05:14.031Z,48.40
2019-05-12T12:07:50.667Z,48.26
2019-05-12T12:10:16.692Z,47.26
2019-05-12T12:12:49.293Z,46.87
2019-05-12T12:15:20.524Z,47.67
2019-05-12T12:17:50.079Z,47.85
2019-05-12T12:20:22.475Z,48.20
2019-05-12T12:22:54.122Z,47.86
2019-05-12T12:25:30.253Z,47.36
2019-05-12T12:28:00.450Z,46.28
2019-05-12T12:30:30.455Z,46.93
2019-05-12T12:33:03.638Z,45.70
2019-05-12T12:35:34.394Z,47.24
2019-05-12T12:38:04.711Z,47.46
2019-05-12T12:40:34.674Z,46.48
2019-05-12T12:43:04.648Z,47.22
2019-05-12T12:45:40.817Z,47.27
2019-05-12T12:48:11.097Z,46.65
2019-05-12T12:50:41.053Z,47.27
2019-05-12T12:53:11.278Z,48.13
2019-05-12T12:55:43.569Z,48.35
2019-05-12T12:58:14.078Z,47.67
2019-05-12T13:00:53.671Z,47.22
2019-05-12T13:03:19.593Z,46.17
2019-05-12T13:05:47.563Z,46.20
2019-05-12T13:08:17.694Z,45.80
2019-05-12T13:10:51.395Z,46.57
2019-05-12T13:13:20.120Z,46.44
2019-05-12T13:15:50.119Z,46.06
2019-05-12T13:18:25.770Z,46.10
2019-05-12T13:20:53.959Z,45.57
2019-05-12T13:23:36.678Z,44.98
2019-05-12T13:25:55.541Z,44.78
2019-05-12T13:28:25.999Z,44.33
2019-05-12T13:31:08.260Z,44.48
2019-05-12T13:33:29.383Z,44.55
2019-05-12T13:35:59.268Z,45.47
2019-05-12T13:38:30.455Z,45.29
2019-05-12T13:41:00.731Z,45.03
2019-05-12T13:43:30.620Z,44.96
2019-05-12T13:46:00.626Z,44.89
2019-05-12T13:48:30.534Z,45.26
2019-05-12T13:51:10.311Z,46.58
2019-05-12T13:53:33.480Z,46.41
2019-05-12T13:56:04.829Z,45.48
2019-05-12T13:58:42.584Z,44.59
2019-05-12T14:01:20.014Z,44.96
2019-05-12T14:03:39.862Z,44.79
2019-05-12T14:06:09.798Z,45.19
2019-05-12T14:08:39.706Z,44.90
2019-05-12T14:11:09.607Z,45.32
2019-05-12T14:13:39.932Z,45.12
2019-05-12T14:16:10.733Z,45.00
2019-05-12T14:18:40.830Z,45.56
2019-05-12T14:21:10.672Z,45.82
2019-05-12T14:23:40.507Z,45.16
2019-05-12T14:26:10.507Z,45.10
2019-05-12T14:28:45.554Z,44.69
2019-05-12T14:31:24.460Z,44.48
2019-05-12T14:33:44.299Z,44.72
2019-05-12T14:36:21.581Z,44.08
2019-05-12T14:38:46.290Z,44.38
2019-05-12T14:41:16.178Z,44.75
2019-05-12T14:43:47.926Z,44.43
2019-05-12T14:46:18.137Z,44.73
2019-05-12T14:48:50.470Z,43.84
2019-05-12T14:51:20.033Z,43.99
2019-05-12T14:53:50.028Z,44.26
2019-05-12T14:56:20.204Z,43.63
2019-05-12T14:58:55.564Z,44.33
2019-05-12T15:01:23.862Z,44.17
2019-05-12T15:03:53.611Z,43.46
2019-05-12T15:06:28.245Z,43.05
2019-05-12T15:08:55.883Z,43.35
2019-05-12T15:11:25.852Z,43.81
2019-05-12T15:13:55.874Z,43.33
2019-05-12T15:16:25.699Z,42.75
2019-05-12T15:18:55.527Z,43.33
2019-05-12T15:21:27.306Z,44.00
2019-05-12T15:23:57.534Z,44.16
2019-05-12T15:26:27.531Z,44.03
2019-05-12T15:28:57.416Z,44.25
2019-05-12T15:31:27.559Z,44.30
2019-05-12T15:33:59.550Z,43.99
2019-05-12T15:36:29.324Z,44.44
2019-05-12T15:38:59.292Z,44.66
2019-05-12T15:41:29.193Z,43.95
2019-05-12T15:43:59.416Z,43.72
2019-05-12T15:46:34.686Z,43.71
2019-05-12T15:49:00.776Z,44.38
2019-05-12T15:51:30.817Z,44.10
2019-05-12T15:54:06.554Z,44.09
2019-05-12T15:56:33.625Z,43.66
2019-05-12T15:59:03.875Z,44.24
2019-05-12T16:01:33.821Z,44.32
2019-05-12T16:04:03.846Z,43.66
2019-05-12T16:06:33.621Z,43.74
2019-05-12T16:09:05.168Z,44.23
2019-05-12T16:11:35.187Z,43.98
2019-05-12T16:14:06.670Z,44.25
2019-05-12T16:16:42.424Z,43.86
2019-05-12T16:19:09.335Z,44.38
2019-05-12T16:21:39.826Z,43.97
2019-05-12T16:24:12.442Z,44.41
2019-05-12T16:26:45.260Z,44.33
2019-05-12T16:29:12.895Z,43.70
2019-05-12T16:31:45.648Z,44.25
2019-05-12T16:34:14.849Z,44.16
2019-05-12T16:36:47.589Z,44.42
2019-05-12T16:39:17.004Z,44.62
2019-05-12T16:41:47.266Z,44.75
2019-05-12T16:44:23.152Z,44.27
2019-05-12T16:46:49.046Z,44.68
2019-05-12T16:49:25.018Z,44.50
2019-05-12T16:51:51.203Z,44.37
2019-05-12T16:54:24.033Z,44.27
2019-05-12T16:56:54.159Z,44.69
2019-05-12T16:59:24.617Z,44.23
2019-05-12T17:01:59.323Z,44.38
2019-05-12T17:04:26.270Z,44.53
2019-05-12T17:06:56.081Z,44.40
2019-05-12T17:09:26.023Z,44.24
2019-05-12T17:11:55.981Z,44.44
2019-05-12T17:14:28.642Z,44.27
2019-05-12T17:16:57.438Z,44.12
2019-05-12T17:19:27.555Z,44.04
2019-05-12T17:21:59.493Z,44.17
2019-05-12T17:24:29.623Z,44.09
2019-05-12T17:26:59.508Z,43.88
2019-05-12T17:29:29.729Z,44.06
2019-05-12T17:32:00.079Z,44.05
2019-05-12T17:34:29.902Z,44.07
2019-05-12T17:37:00.581Z,44.34
2019-05-12T17:39:35.787Z,44.33
2019-05-12T17:42:03.112Z,44.27
2019-05-12T17:44:36.617Z,44.36
2019-05-12T17:47:04.593Z,44.55
2019-05-12T17:49:34.875Z,44.55
2019-05-12T17:52:13.449Z,44.67
2019-05-12T17:54:36.753Z,44.75
2019-05-12T17:57:09.596Z,44.94
2019-05-12T17:59:41.881Z,45.25
2019-05-12T18:02:13.187Z,45.03
2019-05-12T18:04:43.729Z,45.03
2019-05-12T18:07:19.131Z,45.35
2019-05-12T18:09:50.635Z,45.46
2019-05-12T18:12:18.427Z,45.84
2019-05-12T18:14:52.230Z,45.65
2019-05-12T18:17:20.259Z,45.93
2019-05-12T18:19:55.337Z,45.97
2019-05-12T18:22:23.560Z,45.92
2019-05-12T18:24:54.281Z,45.97
2019-05-12T18:27:25.709Z,46.18
2019-05-12T18:29:55.875Z,46.27
2019-05-12T18:32:26.076Z,46.17
2019-05-12T18:34:56.150Z,46.36
2019-05-12T18:37:26.053Z,46.36
2019-05-12T18:39:56.223Z,46.38
2019-05-12T18:42:26.123Z,46.32
2019-05-12T18:45:01.238Z,46.66
2019-05-12T18:47:33.424Z,46.79
2019-05-12T18:50:04.596Z,46.85
2019-05-12T18:52:41.384Z,46.86
2019-05-12T18:55:07.322Z,47.03
2019-05-12T18:57:39.361Z,47.16
2019-05-12T19:00:18.208Z,47.11
2019-05-12T19:02:51.081Z,47.25
2019-05-12T19:05:23.993Z,47.30
2019-05-12T19:07:54.261Z,47.44
2019-05-12T19:10:25.109Z,47.53
2019-05-12T19:13:01.241Z,47.59
2019-05-12T19:15:27.804Z,47.73
2019-05-12T19:17:58.036Z,47.89
2019-05-12T19:20:31.315Z,48.04
2019-05-12T19:23:00.212Z,48.01
2019-05-12T19:25:35.791Z,48.15
2019-05-12T19:28:07.050Z,48.14
2019-05-12T19:30:34.518Z,48.30
2019-05-12T19:33:10.549Z,48.36
2019-05-12T19:35:38.081Z,48.49
2019-05-12T19:38:07.895Z,48.60
2019-05-12T19:40:37.857Z,48.73
2019-05-12T19:43:09.838Z,48.86
2019-05-12T19:45:39.812Z,49.01
2019-05-12T19:48:23.293Z,49.19
2019-05-12T19:50:44.517Z,49.29
2019-05-12T19:53:13.392Z,49.54
2019-05-12T19:55:44.752Z,49.64
2019-05-12T19:58:14.769Z,49.76
2019-05-12T20:00:44.879Z,49.85
2019-05-12T20:03:15.071Z,49.97
2019-05-12T20:05:45.056Z,50.12
2019-05-12T20:08:15.376Z,50.29
2019-05-12T20:10:49.378Z,50.38
2019-05-12T20:13:17.806Z,50.45
2019-05-12T20:15:47.836Z,50.52
2019-05-12T20:18:17.859Z,50.71
2019-05-12T20:20:48.033Z,50.87
2019-05-12T20:23:17.948Z,50.96
2019-05-12T20:25:48.281Z,51.03
2019-05-12T20:28:18.217Z,51.11
2019-05-12T20:30:52.289Z,51.23
2019-05-12T20:33:20.703Z,51.44
2019-05-12T20:35:50.584Z,51.47
2019-05-12T20:38:25.543Z,51.51
2019-05-12T20:40:54.076Z,51.65
2019-05-12T20:43:32.065Z,51.69
2019-05-12T20:45:55.667Z,51.73
2019-05-12T20:48:30.972Z,51.71
2019-05-12T20:50:58.024Z,51.87
2019-05-12T20:53:31.776Z,51.87
2019-05-12T20:55:59.708Z,51.98
2019-05-12T20:58:35.394Z,52.05
2019-05-12T21:01:04.504Z,52.08
2019-05-12T21:03:33.628Z,52.11
2019-05-12T21:06:04.413Z,52.36
2019-05-12T21:08:34.439Z,52.47
2019-05-12T21:11:04.726Z,52.56
2019-05-12T21:13:35.395Z,52.70
2019-05-12T21:16:16.570Z,52.90
2019-05-12T21:18:46.909Z,52.91
2019-05-12T21:21:08.993Z,52.92
2019-05-12T21:23:38.867Z,53.02
2019-05-12T21:26:08.680Z,53.27
2019-05-12T21:28:46.046Z,53.65
2019-05-12T21:31:10.264Z,53.55
2019-05-12T21:33:41.754Z,53.61
2019-05-12T21:36:17.362Z,53.75
2019-05-12T21:38:43.407Z,53.89
2019-05-12T21:41:15.628Z,53.91
2019-05-12T21:43:45.744Z,54.02
2019-05-12T21:46:15.844Z,54.26
2019-05-12T21:48:45.732Z,54.54
2019-05-12T21:51:19.929Z,54.66
2019-05-12T21:53:50.688Z,54.82
2019-05-12T21:56:20.803Z,54.76
2019-05-12T21:58:53.738Z,54.81
2019-05-12T22:01:23.945Z,54.67
2019-05-12T22:04:01.803Z,54.67
2019-05-12T22:06:26.099Z,54.68
2019-05-12T22:09:01.586Z,54.93
2019-05-12T22:11:34.656Z,54.94
2019-05-12T22:14:06.285Z,54.99
2019-05-12T22:16:43.631Z,55.13
2019-05-12T22:19:09.385Z,55.38
2019-05-12T22:21:46.948Z,55.33
2019-05-12T22:24:10.943Z,55.30
2019-05-12T22:26:45.955Z,55.35
2019-05-12T22:29:13.633Z,55.40
2019-05-12T22:31:44.980Z,55.56
2019-05-12T22:34:15.982Z,55.58
2019-05-12T22:36:55.305Z,55.93
2019-05-12T22:39:18.687Z,55.68
2019-05-12T22:41:49.248Z,55.64
2019-05-12T22:44:22.104Z,55.82
2019-05-12T22:46:53.907Z,55.97
2019-05-12T22:49:23.076Z,55.97
2019-05-12T22:51:54.598Z,55.85
2019-05-12T22:54:24.767Z,55.91
2019-05-12T22:56:55.244Z,55.87
2019-05-12T22:59:26.246Z,55.87
2019-05-12T23:01:56.064Z,56.10
2019-05-12T23:04:35.615Z,56.11
2019-05-12T23:06:58.453Z,56.21
2019-05-12T23:09:30.158Z,56.37
2019-05-12T23:12:00.735Z,56.37
2019-05-12T23:14:30.701Z,56.54
2019-05-12T23:17:05.842Z,56.65
2019-05-12T23:19:33.966Z,56.60
2019-05-12T23:22:04.288Z,56.91
2019-05-12T23:24:39.169Z,57.01
2019-05-12T23:27:08.931Z,57.00
2019-05-12T23:29:37.675Z,57.11
2019-05-12T23:32:11.916Z,57.32
2019-05-12T23:34:44.209Z,57.45
2019-05-12T23:37:11.282Z,57.59
2019-05-12T23:39:41.516Z,57.71
2019-05-12T23:42:13.633Z,57.79
2019-05-12T23:44:44.150Z,57.85
2019-05-12T23:47:15.035Z,58.05
2019-05-12T23:49:44.880Z,58.34
2019-05-12T23:52:14.725Z,58.41
2019-05-12T23:54:45.014Z,58.53
2019-05-12T23:57:15.732Z,58.44
2019-05-12T23:59:46.725Z,58.64
